sensor_id;sensor_type;location;lat;lon;timestamp;P1;durP1;ratioP1;P2;durP2;ratioP2
18711;SDS011;9485;49.386;8.674;2023-08-06T00:02:35;1.75;;;1.58;;
18711;SDS011;9485;49.386;8.674;2023-08-06T00:07:56;2.65;;;1.88;;
18711;SDS011;9485;49.386;8.674;2023-08-06T00:13:18;2.85;;;1.75;;
18711;SDS011;9485;49.386;8.674;2023-08-06T00:18:38;1.75;;;1.65;;
18711;SDS011;9485;49.386;8.674;2023-08-06T00:23:59;2.22;;;1.85;;
18711;SDS011;9485;49.386;8.674;2023-08-06T00:29:21;3.67;;;1.75;;
18711;SDS011;9485;49.386;8.674;2023-08-06T00:34:42;1.63;;;1.52;;
18711;SDS011;9485;49.386;8.674;2023-08-06T00:40:03;1.75;;;1.65;;
18711;SDS011;9485;49.386;8.674;2023-08-06T00:45:27;1.60;;;1.40;;
18711;SDS011;9485;49.386;8.674;2023-08-06T00:50:50;1.58;;;1.48;;
18711;SDS011;9485;49.386;8.674;2023-08-06T00:56:10;1.70;;;1.60;;
18711;SDS011;9485;49.386;8.674;2023-08-06T01:01:34;1.67;;;1.58;;
18711;SDS011;9485;49.386;8.674;2023-08-06T01:06:58;2.25;;;1.73;;
18711;SDS011;9485;49.386;8.674;2023-08-06T01:12:30;1.58;;;1.48;;
18711;SDS011;9485;49.386;8.674;2023-08-06T01:18:00;1.92;;;1.70;;
18711;SDS011;9485;49.386;8.674;2023-08-06T01:23:23;3.83;;;1.80;;
18711;SDS011;9485;49.386;8.674;2023-08-06T01:28:48;1.55;;;1.45;;
18711;SDS011;9485;49.386;8.674;2023-08-06T01:34:21;1.92;;;1.60;;
18711;SDS011;9485;49.386;8.674;2023-08-06T01:39:45;1.52;;;1.27;;
18711;SDS011;9485;49.386;8.674;2023-08-06T01:45:06;1.30;;;1.20;;
18711;SDS011;9485;49.386;8.674;2023-08-06T01:50:31;1.58;;;1.48;;
18711;SDS011;9485;49.386;8.674;2023-08-06T01:55:53;1.60;;;1.50;;
18711;SDS011;9485;49.386;8.674;2023-08-06T02:01:14;1.58;;;1.48;;
18711;SDS011;9485;49.386;8.674;2023-08-06T02:06:34;1.67;;;1.40;;
18711;SDS011;9485;49.386;8.674;2023-08-06T02:11:56;1.27;;;1.17;;
18711;SDS011;9485;49.386;8.674;2023-08-06T02:17:17;1.60;;;1.40;;
18711;SDS011;9485;49.386;8.674;2023-08-06T02:22:37;2.10;;;1.52;;
18711;SDS011;9485;49.386;8.674;2023-08-06T02:27:59;3.53;;;1.50;;
18711;SDS011;9485;49.386;8.674;2023-08-06T02:33:20;2.00;;;1.30;;
18711;SDS011;9485;49.386;8.674;2023-08-06T02:38:41;1.63;;;1.52;;
18711;SDS011;9485;49.386;8.674;2023-08-06T02:44:03;2.22;;;1.48;;
18711;SDS011;9485;49.386;8.674;2023-08-06T02:49:24;3.20;;;1.52;;
18711;SDS011;9485;49.386;8.674;2023-08-06T02:54:44;1.20;;;1.10;;
18711;SDS011;9485;49.386;8.674;2023-08-06T03:00:09;2.13;;;1.20;;
18711;SDS011;9485;49.386;8.674;2023-08-06T03:05:31;2.58;;;1.30;;
18711;SDS011;9485;49.386;8.674;2023-08-06T03:10:51;1.23;;;1.13;;
18711;SDS011;9485;49.386;8.674;2023-08-06T03:16:14;2.55;;;1.40;;
18711;SDS011;9485;49.386;8.674;2023-08-06T03:21:36;1.60;;;1.20;;
18711;SDS011;9485;49.386;8.674;2023-08-06T03:26:58;1.42;;;1.27;;
18711;SDS011;9485;49.386;8.674;2023-08-06T03:32:20;1.85;;;1.20;;
18711;SDS011;9485;49.386;8.674;2023-08-06T03:37:41;3.75;;;1.20;;
18711;SDS011;9485;49.386;8.674;2023-08-06T03:43:01;1.40;;;1.00;;
18711;SDS011;9485;49.386;8.674;2023-08-06T03:48:23;1.80;;;1.05;;
18711;SDS011;9485;49.386;8.674;2023-08-06T03:53:44;1.23;;;1.13;;
18711;SDS011;9485;49.386;8.674;2023-08-06T03:59:04;1.20;;;1.10;;
18711;SDS011;9485;49.386;8.674;2023-08-06T04:04:26;2.70;;;1.10;;
18711;SDS011;9485;49.386;8.674;2023-08-06T04:09:53;1.05;;;0.95;;
18711;SDS011;9485;49.386;8.674;2023-08-06T04:15:17;1.48;;;1.20;;
18711;SDS011;9485;49.386;8.674;2023-08-06T04:20:43;1.38;;;1.20;;
18711;SDS011;9485;49.386;8.674;2023-08-06T04:26:04;1.50;;;1.02;;
18711;SDS011;9485;49.386;8.674;2023-08-06T04:31:27;2.40;;;0.90;;
18711;SDS011;9485;49.386;8.674;2023-08-06T04:36:51;0.80;;;0.70;;
18711;SDS011;9485;49.386;8.674;2023-08-06T04:42:12;0.80;;;0.80;;
18711;SDS011;9485;49.386;8.674;2023-08-06T04:47:32;1.10;;;1.00;;
18711;SDS011;9485;49.386;8.674;2023-08-06T04:52:54;1.20;;;0.60;;
18711;SDS011;9485;49.386;8.674;2023-08-06T04:58:14;2.30;;;0.80;;
18711;SDS011;9485;49.386;8.674;2023-08-06T05:03:35;2.45;;;0.82;;
18711;SDS011;9485;49.386;8.674;2023-08-06T05:08:57;0.77;;;0.70;;
18711;SDS011;9485;49.386;8.674;2023-08-06T05:14:18;1.90;;;1.02;;
18711;SDS011;9485;49.386;8.674;2023-08-06T05:19:38;1.20;;;0.70;;
18711;SDS011;9485;49.386;8.674;2023-08-06T05:25:00;4.87;;;0.80;;
18711;SDS011;9485;49.386;8.674;2023-08-06T05:30:21;2.80;;;0.60;;
18711;SDS011;9485;49.386;8.674;2023-08-06T05:35:42;2.13;;;1.07;;
18711;SDS011;9485;49.386;8.674;2023-08-06T05:41:03;2.87;;;0.90;;
18711;SDS011;9485;49.386;8.674;2023-08-06T05:46:24;3.83;;;0.87;;
18711;SDS011;9485;49.386;8.674;2023-08-06T05:51:44;1.03;;;0.80;;
18711;SDS011;9485;49.386;8.674;2023-08-06T05:57:07;1.57;;;0.73;;
18711;SDS011;9485;49.386;8.674;2023-08-06T06:02:27;0.93;;;0.60;;
18711;SDS011;9485;49.386;8.674;2023-08-06T06:07:48;3.17;;;0.97;;
18711;SDS011;9485;49.386;8.674;2023-08-06T06:13:10;3.33;;;0.90;;
18711;SDS011;9485;49.386;8.674;2023-08-06T06:18:31;1.60;;;0.70;;
18711;SDS011;9485;49.386;8.674;2023-08-06T06:23:52;0.90;;;0.70;;
18711;SDS011;9485;49.386;8.674;2023-08-06T06:29:14;0.93;;;0.67;;
18711;SDS011;9485;49.386;8.674;2023-08-06T06:34:34;1.10;;;0.60;;
18711;SDS011;9485;49.386;8.674;2023-08-06T06:39:55;3.67;;;0.60;;
18711;SDS011;9485;49.386;8.674;2023-08-06T06:45:17;0.57;;;0.50;;
18711;SDS011;9485;49.386;8.674;2023-08-06T06:50:37;0.70;;;0.50;;
18711;SDS011;9485;49.386;8.674;2023-08-06T06:56:01;0.73;;;0.50;;
18711;SDS011;9485;49.386;8.674;2023-08-06T07:01:25;0.50;;;0.50;;
18711;SDS011;9485;49.386;8.674;2023-08-06T07:06:46;0.50;;;0.50;;
18711;SDS011;9485;49.386;8.674;2023-08-06T07:12:07;0.83;;;0.50;;
18711;SDS011;9485;49.386;8.674;2023-08-06T07:17:29;0.60;;;0.40;;
18711;SDS011;9485;49.386;8.674;2023-08-06T07:22:50;0.60;;;0.60;;
18711;SDS011;9485;49.386;8.674;2023-08-06T07:28:11;0.50;;;0.40;;
18711;SDS011;9485;49.386;8.674;2023-08-06T07:33:32;0.50;;;0.40;;
18711;SDS011;9485;49.386;8.674;2023-08-06T07:38:53;0.53;;;0.40;;
18711;SDS011;9485;49.386;8.674;2023-08-06T07:44:15;0.77;;;0.40;;
18711;SDS011;9485;49.386;8.674;2023-08-06T07:49:37;0.30;;;0.30;;
18711;SDS011;9485;49.386;8.674;2023-08-06T07:54:58;0.40;;;0.37;;
18711;SDS011;9485;49.386;8.674;2023-08-06T08:00:20;0.30;;;0.30;;
18711;SDS011;9485;49.386;8.674;2023-08-06T08:05:42;0.37;;;0.37;;
18711;SDS011;9485;49.386;8.674;2023-08-06T08:11:04;0.30;;;0.30;;
18711;SDS011;9485;49.386;8.674;2023-08-06T08:16:25;0.60;;;0.33;;
18711;SDS011;9485;49.386;8.674;2023-08-06T08:21:47;0.30;;;0.30;;
18711;SDS011;9485;49.386;8.674;2023-08-06T08:27:07;0.60;;;0.40;;
18711;SDS011;9485;49.386;8.674;2023-08-06T08:32:28;0.90;;;0.40;;
18711;SDS011;9485;49.386;8.674;2023-08-06T08:37:50;0.23;;;0.23;;
18711;SDS011;9485;49.386;8.674;2023-08-06T08:43:18;0.30;;;0.30;;
18711;SDS011;9485;49.386;8.674;2023-08-06T08:48:42;0.30;;;0.30;;
18711;SDS011;9485;49.386;8.674;2023-08-06T08:54:03;0.93;;;0.40;;
18711;SDS011;9485;49.386;8.674;2023-08-06T08:59:28;0.50;;;0.40;;
18711;SDS011;9485;49.386;8.674;2023-08-06T09:04:49;0.50;;;0.40;;
18711;SDS011;9485;49.386;8.674;2023-08-06T09:10:11;0.20;;;0.20;;
18711;SDS011;9485;49.386;8.674;2023-08-06T09:15:35;0.25;;;0.25;;
18711;SDS011;9485;49.386;8.674;2023-08-06T09:20:57;0.30;;;0.30;;
18711;SDS011;9485;49.386;8.674;2023-08-06T09:26:18;0.30;;;0.30;;
18711;SDS011;9485;49.386;8.674;2023-08-06T09:31:41;0.20;;;0.20;;
18711;SDS011;9485;49.386;8.674;2023-08-06T09:37:04;0.30;;;0.30;;
18711;SDS011;9485;49.386;8.674;2023-08-06T09:42:25;0.25;;;0.25;;
18711;SDS011;9485;49.386;8.674;2023-08-06T09:47:47;0.35;;;0.30;;
18711;SDS011;9485;49.386;8.674;2023-08-06T09:53:08;0.30;;;0.30;;
18711;SDS011;9485;49.386;8.674;2023-08-06T09:58:29;0.40;;;0.40;;
18711;SDS011;9485;49.386;8.674;2023-08-06T10:03:53;0.35;;;0.30;;
18711;SDS011;9485;49.386;8.674;2023-08-06T10:09:17;1.30;;;0.40;;
18711;SDS011;9485;49.386;8.674;2023-08-06T10:14:38;0.30;;;0.30;;
18711;SDS011;9485;49.386;8.674;2023-08-06T10:20:04;0.30;;;0.20;;
18711;SDS011;9485;49.386;8.674;2023-08-06T10:25:30;0.40;;;0.40;;
18711;SDS011;9485;49.386;8.674;2023-08-06T10:30:52;0.60;;;0.40;;
18711;SDS011;9485;49.386;8.674;2023-08-06T10:36:14;0.40;;;0.40;;
18711;SDS011;9485;49.386;8.674;2023-08-06T10:41:35;1.13;;;0.30;;
18711;SDS011;9485;49.386;8.674;2023-08-06T10:46:56;0.30;;;0.30;;
18711;SDS011;9485;49.386;8.674;2023-08-06T10:52:47;0.40;;;0.40;;
18711;SDS011;9485;49.386;8.674;2023-08-06T10:58:09;1.20;;;0.30;;
18711;SDS011;9485;49.386;8.674;2023-08-06T11:03:35;0.40;;;0.40;;
18711;SDS011;9485;49.386;8.674;2023-08-06T11:08:58;0.40;;;0.40;;
18711;SDS011;9485;49.386;8.674;2023-08-06T11:14:19;0.77;;;0.30;;
18711;SDS011;9485;49.386;8.674;2023-08-06T11:19:40;0.37;;;0.37;;
18711;SDS011;9485;49.386;8.674;2023-08-06T11:25:03;0.40;;;0.40;;
18711;SDS011;9485;49.386;8.674;2023-08-06T11:30:26;0.40;;;0.40;;
18711;SDS011;9485;49.386;8.674;2023-08-06T11:35:47;0.50;;;0.40;;
18711;SDS011;9485;49.386;8.674;2023-08-06T11:41:10;0.40;;;0.40;;
18711;SDS011;9485;49.386;8.674;2023-08-06T11:52:15;0.87;;;0.50;;
18711;SDS011;9485;49.386;8.674;2023-08-06T11:57:43;0.50;;;0.50;;
18711;SDS011;9485;49.386;8.674;2023-08-06T12:03:05;0.50;;;0.50;;
18711;SDS011;9485;49.386;8.674;2023-08-06T12:08:26;0.73;;;0.70;;
18711;SDS011;9485;49.386;8.674;2023-08-06T12:13:51;0.60;;;0.60;;
18711;SDS011;9485;49.386;8.674;2023-08-06T12:19:12;1.55;;;0.70;;
18711;SDS011;9485;49.386;8.674;2023-08-06T12:24:33;0.90;;;0.80;;
18711;SDS011;9485;49.386;8.674;2023-08-06T12:29:55;0.73;;;0.73;;
18711;SDS011;9485;49.386;8.674;2023-08-06T12:35:16;0.77;;;0.77;;
18711;SDS011;9485;49.386;8.674;2023-08-06T12:40:36;0.87;;;0.77;;
18711;SDS011;9485;49.386;8.674;2023-08-06T12:45:58;1.80;;;0.80;;
18711;SDS011;9485;49.386;8.674;2023-08-06T12:51:19;0.80;;;0.80;;
18711;SDS011;9485;49.386;8.674;2023-08-06T12:56:40;3.77;;;0.97;;
18711;SDS011;9485;49.386;8.674;2023-08-06T13:02:02;0.75;;;0.75;;
18711;SDS011;9485;49.386;8.674;2023-08-06T13:07:23;1.48;;;0.90;;
18711;SDS011;9485;49.386;8.674;2023-08-06T13:12:44;0.75;;;0.52;;
18711;SDS011;9485;49.386;8.674;2023-08-06T13:18:06;0.60;;;0.60;;
18711;SDS011;9485;49.386;8.674;2023-08-06T13:23:26;0.90;;;0.68;;
18711;SDS011;9485;49.386;8.674;2023-08-06T13:28:47;1.13;;;0.63;;
18711;SDS011;9485;49.386;8.674;2023-08-06T13:34:09;0.60;;;0.60;;
18711;SDS011;9485;49.386;8.674;2023-08-06T13:39:30;0.75;;;0.68;;
18711;SDS011;9485;49.386;8.674;2023-08-06T13:44:50;1.77;;;0.70;;
18711;SDS011;9485;49.386;8.674;2023-08-06T13:50:13;1.08;;;0.60;;
18711;SDS011;9485;49.386;8.674;2023-08-06T13:55:34;1.90;;;0.70;;
18711;SDS011;9485;49.386;8.674;2023-08-06T14:00:55;1.40;;;0.60;;
18711;SDS011;9485;49.386;8.674;2023-08-06T14:06:18;0.95;;;0.70;;
18711;SDS011;9485;49.386;8.674;2023-08-06T14:11:38;0.57;;;0.57;;
18711;SDS011;9485;49.386;8.674;2023-08-06T14:16:59;0.70;;;0.63;;
18711;SDS011;9485;49.386;8.674;2023-08-06T14:22:25;0.57;;;0.57;;
18711;SDS011;9485;49.386;8.674;2023-08-06T14:27:46;0.93;;;0.57;;
18711;SDS011;9485;49.386;8.674;2023-08-06T14:33:06;0.60;;;0.60;;
18711;SDS011;9485;49.386;8.674;2023-08-06T14:38:28;1.33;;;0.90;;
18711;SDS011;9485;49.386;8.674;2023-08-06T14:43:49;0.70;;;0.70;;
18711;SDS011;9485;49.386;8.674;2023-08-06T14:49:11;0.70;;;0.70;;
18711;SDS011;9485;49.386;8.674;2023-08-06T14:54:33;0.70;;;0.70;;
18711;SDS011;9485;49.386;8.674;2023-08-06T14:59:54;1.20;;;0.80;;
18711;SDS011;9485;49.386;8.674;2023-08-06T15:05:14;1.30;;;0.80;;
18711;SDS011;9485;49.386;8.674;2023-08-06T15:10:36;1.37;;;0.80;;
18711;SDS011;9485;49.386;8.674;2023-08-06T15:15:57;0.60;;;0.60;;
18711;SDS011;9485;49.386;8.674;2023-08-06T15:21:18;2.27;;;0.90;;
18711;SDS011;9485;49.386;8.674;2023-08-06T15:26:40;2.60;;;1.00;;
18711;SDS011;9485;49.386;8.674;2023-08-06T15:32:00;0.93;;;0.83;;
18711;SDS011;9485;49.386;8.674;2023-08-06T15:37:22;0.97;;;0.83;;
18711;SDS011;9485;49.386;8.674;2023-08-06T15:42:45;1.00;;;0.90;;
18711;SDS011;9485;49.386;8.674;2023-08-06T15:48:05;1.70;;;0.80;;
18711;SDS011;9485;49.386;8.674;2023-08-06T15:53:27;0.90;;;0.90;;
18711;SDS011;9485;49.386;8.674;2023-08-06T15:58:52;1.10;;;1.00;;
18711;SDS011;9485;49.386;8.674;2023-08-06T16:04:13;0.70;;;0.70;;
18711;SDS011;9485;49.386;8.674;2023-08-06T16:09:33;0.70;;;0.70;;
18711;SDS011;9485;49.386;8.674;2023-08-06T16:14:55;1.47;;;0.60;;
18711;SDS011;9485;49.386;8.674;2023-08-06T16:20:17;0.80;;;0.80;;
18711;SDS011;9485;49.386;8.674;2023-08-06T16:25:38;0.60;;;0.60;;
18711;SDS011;9485;49.386;8.674;2023-08-06T16:31:05;0.50;;;0.50;;
18711;SDS011;9485;49.386;8.674;2023-08-06T16:36:27;0.70;;;0.70;;
18711;SDS011;9485;49.386;8.674;2023-08-06T16:41:48;0.60;;;0.60;;
18711;SDS011;9485;49.386;8.674;2023-08-06T16:47:10;1.03;;;0.70;;
18711;SDS011;9485;49.386;8.674;2023-08-06T16:52:32;0.87;;;0.60;;
18711;SDS011;9485;49.386;8.674;2023-08-06T16:57:52;0.70;;;0.70;;
18711;SDS011;9485;49.386;8.674;2023-08-06T17:03:15;0.70;;;0.70;;
18711;SDS011;9485;49.386;8.674;2023-08-06T17:08:36;0.60;;;0.60;;
18711;SDS011;9485;49.386;8.674;2023-08-06T17:13:57;0.53;;;0.53;;
18711;SDS011;9485;49.386;8.674;2023-08-06T17:19:20;0.57;;;0.57;;
18711;SDS011;9485;49.386;8.674;2023-08-06T17:24:41;1.23;;;0.60;;
18711;SDS011;9485;49.386;8.674;2023-08-06T17:30:01;0.50;;;0.50;;
18711;SDS011;9485;49.386;8.674;2023-08-06T17:35:24;0.90;;;0.90;;
18711;SDS011;9485;49.386;8.674;2023-08-06T17:40:52;0.60;;;0.60;;
18711;SDS011;9485;49.386;8.674;2023-08-06T17:46:14;0.57;;;0.57;;
18711;SDS011;9485;49.386;8.674;2023-08-06T17:51:36;1.90;;;0.83;;
18711;SDS011;9485;49.386;8.674;2023-08-06T17:56:56;0.77;;;0.70;;
18711;SDS011;9485;49.386;8.674;2023-08-06T18:02:17;0.90;;;0.90;;
18711;SDS011;9485;49.386;8.674;2023-08-06T18:07:40;1.00;;;0.90;;
18711;SDS011;9485;49.386;8.674;2023-08-06T18:13:02;0.70;;;0.70;;
18711;SDS011;9485;49.386;8.674;2023-08-06T18:18:23;2.37;;;0.90;;
18711;SDS011;9485;49.386;8.674;2023-08-06T18:23:45;0.90;;;0.90;;
18711;SDS011;9485;49.386;8.674;2023-08-06T18:29:06;0.70;;;0.70;;
18711;SDS011;9485;49.386;8.674;2023-08-06T18:34:27;1.30;;;0.90;;
18711;SDS011;9485;49.386;8.674;2023-08-06T18:39:49;0.70;;;0.70;;
18711;SDS011;9485;49.386;8.674;2023-08-06T18:45:10;0.90;;;0.90;;
18711;SDS011;9485;49.386;8.674;2023-08-06T18:50:30;1.10;;;0.90;;
18711;SDS011;9485;49.386;8.674;2023-08-06T18:55:56;1.03;;;0.80;;
18711;SDS011;9485;49.386;8.674;2023-08-06T19:01:16;1.33;;;0.90;;
18711;SDS011;9485;49.386;8.674;2023-08-06T19:06:37;1.27;;;0.88;;
18711;SDS011;9485;49.386;8.674;2023-08-06T19:11:59;1.03;;;0.87;;
18711;SDS011;9485;49.386;8.674;2023-08-06T19:17:21;1.43;;;0.70;;
18711;SDS011;9485;49.386;8.674;2023-08-06T19:22:41;0.67;;;0.60;;
18711;SDS011;9485;49.386;8.674;2023-08-06T19:28:03;1.00;;;0.67;;
18711;SDS011;9485;49.386;8.674;2023-08-06T19:33:29;0.87;;;0.83;;
18711;SDS011;9485;49.386;8.674;2023-08-06T19:38:50;0.70;;;0.60;;
18711;SDS011;9485;49.386;8.674;2023-08-06T19:44:13;0.60;;;0.60;;
18711;SDS011;9485;49.386;8.674;2023-08-06T19:49:34;0.80;;;0.80;;
18711;SDS011;9485;49.386;8.674;2023-08-06T19:54:55;1.10;;;0.67;;
18711;SDS011;9485;49.386;8.674;2023-08-06T20:00:17;0.63;;;0.63;;
18711;SDS011;9485;49.386;8.674;2023-08-06T20:05:38;0.60;;;0.60;;
18711;SDS011;9485;49.386;8.674;2023-08-06T20:10:58;1.40;;;0.70;;
18711;SDS011;9485;49.386;8.674;2023-08-06T20:16:20;0.63;;;0.60;;
18711;SDS011;9485;49.386;8.674;2023-08-06T20:21:41;0.60;;;0.60;;
18711;SDS011;9485;49.386;8.674;2023-08-06T20:27:03;0.60;;;0.50;;
18711;SDS011;9485;49.386;8.674;2023-08-06T20:32:25;0.90;;;0.60;;
18711;SDS011;9485;49.386;8.674;2023-08-06T20:37:46;0.60;;;0.60;;
18711;SDS011;9485;49.386;8.674;2023-08-06T20:43:07;0.70;;;0.70;;
18711;SDS011;9485;49.386;8.674;2023-08-06T20:48:29;0.93;;;0.70;;
18711;SDS011;9485;49.386;8.674;2023-08-06T20:53:50;1.00;;;0.60;;
18711;SDS011;9485;49.386;8.674;2023-08-06T20:59:11;0.70;;;0.70;;
18711;SDS011;9485;49.386;8.674;2023-08-06T21:04:33;1.90;;;0.73;;
18711;SDS011;9485;49.386;8.674;2023-08-06T21:09:54;0.77;;;0.77;;
18711;SDS011;9485;49.386;8.674;2023-08-06T21:15:15;0.70;;;0.60;;
18711;SDS011;9485;49.386;8.674;2023-08-06T21:20:38;1.70;;;0.80;;
18711;SDS011;9485;49.386;8.674;2023-08-06T21:25:59;1.13;;;0.70;;
18711;SDS011;9485;49.386;8.674;2023-08-06T21:31:22;0.80;;;0.80;;
18711;SDS011;9485;49.386;8.674;2023-08-06T21:36:44;0.83;;;0.70;;
18711;SDS011;9485;49.386;8.674;2023-08-06T21:42:08;0.70;;;0.70;;
18711;SDS011;9485;49.386;8.674;2023-08-06T21:47:29;1.27;;;0.70;;
18711;SDS011;9485;49.386;8.674;2023-08-06T21:52:51;1.60;;;0.90;;
18711;SDS011;9485;49.386;8.674;2023-08-06T21:58:12;1.00;;;0.77;;
18711;SDS011;9485;49.386;8.674;2023-08-06T22:03:33;1.70;;;0.80;;
18711;SDS011;9485;49.386;8.674;2023-08-06T22:08:55;1.37;;;1.00;;
18711;SDS011;9485;49.386;8.674;2023-08-06T22:14:16;2.83;;;0.87;;
18711;SDS011;9485;49.386;8.674;2023-08-06T22:19:37;2.03;;;1.10;;
18711;SDS011;9485;49.386;8.674;2023-08-06T22:24:59;2.33;;;0.90;;
18711;SDS011;9485;49.386;8.674;2023-08-06T22:30:19;1.37;;;0.90;;
18711;SDS011;9485;49.386;8.674;2023-08-06T22:35:40;2.23;;;1.03;;
18711;SDS011;9485;49.386;8.674;2023-08-06T22:41:02;2.13;;;1.00;;
18711;SDS011;9485;49.386;8.674;2023-08-06T22:46:25;1.43;;;0.90;;
18711;SDS011;9485;49.386;8.674;2023-08-06T22:51:46;1.40;;;1.30;;
18711;SDS011;9485;49.386;8.674;2023-08-06T22:57:08;1.37;;;1.17;;
18711;SDS011;9485;49.386;8.674;2023-08-06T23:02:29;2.47;;;1.20;;
18711;SDS011;9485;49.386;8.674;2023-08-06T23:07:50;1.10;;;1.00;;
18711;SDS011;9485;49.386;8.674;2023-08-06T23:13:12;1.63;;;1.00;;
18711;SDS011;9485;49.386;8.674;2023-08-06T23:18:32;1.73;;;1.23;;
18711;SDS011;9485;49.386;8.674;2023-08-06T23:23:53;1.80;;;1.30;;
18711;SDS011;9485;49.386;8.674;2023-08-06T23:29:15;1.83;;;1.00;;
18711;SDS011;9485;49.386;8.674;2023-08-06T23:34:35;1.80;;;1.27;;
18711;SDS011;9485;49.386;8.674;2023-08-06T23:39:56;1.60;;;1.13;;
18711;SDS011;9485;49.386;8.674;2023-08-06T23:45:18;1.67;;;1.17;;
18711;SDS011;9485;49.386;8.674;2023-08-06T23:50:39;2.80;;;1.47;;
18711;SDS011;9485;49.386;8.674;2023-08-06T23:56:00;1.70;;;1.20;;
